createdAt,value
2023-03-29T00:02:14.886Z,3.20
2023-03-29T00:04:42.024Z,3.70
2023-03-29T00:07:09.627Z,3.53
2023-03-29T00:09:36.708Z,3.40
2023-03-29T00:12:03.649Z,3.43
2023-03-29T00:14:31.200Z,3.80
2023-03-29T00:16:59.284Z,3.57
2023-03-29T00:19:26.765Z,3.40
2023-03-29T00:21:54.039Z,2.87
2023-03-29T00:24:24.138Z,3.67
2023-03-29T00:26:50.983Z,3.80
2023-03-29T00:29:18.008Z,3.90
2023-03-29T00:31:51.541Z,3.57
2023-03-29T00:34:18.448Z,3.87
2023-03-29T00:36:45.322Z,3.60
2023-03-29T00:39:12.225Z,3.90
2023-03-29T00:41:39.072Z,3.80
2023-03-29T00:44:05.952Z,3.60
2023-03-29T00:46:35.217Z,3.73
2023-03-29T00:49:09.167Z,3.33
2023-03-29T00:51:38.524Z,3.40
2023-03-29T00:54:09.752Z,3.60
2023-03-29T00:56:40.287Z,4.03
2023-03-29T00:59:13.889Z,4.03
2023-03-29T01:01:48.621Z,4.13
2023-03-29T01:04:22.538Z,3.97
2023-03-29T01:07:13.842Z,4.23
2023-03-29T01:09:43.998Z,3.90
2023-03-29T01:12:17.769Z,3.80
2023-03-29T01:14:59.527Z,4.00
2023-03-29T01:17:26.461Z,3.93
2023-03-29T01:20:02.432Z,3.90
2023-03-29T01:22:58.696Z,3.50
2023-03-29T01:25:53.708Z,3.67
2023-03-29T01:28:28.698Z,4.33
2023-03-29T01:31:03.959Z,3.90
2023-03-29T01:33:38.834Z,3.93
2023-03-29T01:36:19.399Z,3.93
2023-03-29T01:38:53.130Z,4.07
2023-03-29T01:41:20.494Z,4.00
2023-03-29T01:43:56.998Z,3.60
2023-03-29T01:46:35.686Z,3.67
2023-03-29T01:49:12.661Z,3.60
2023-03-29T01:51:46.478Z,3.53
2023-03-29T01:54:20.275Z,3.53
2023-03-29T01:56:50.327Z,3.53
2023-03-29T01:59:23.285Z,3.87
2023-03-29T02:01:54.715Z,3.30
2023-03-29T02:04:29.489Z,3.20
2023-03-29T02:06:59.749Z,3.27
2023-03-29T02:09:27.714Z,3.40
2023-03-29T02:11:59.825Z,3.13
2023-03-29T02:14:27.278Z,3.80
2023-03-29T02:16:54.196Z,3.17
2023-03-29T02:19:24.283Z,2.70
2023-03-29T02:22:09.886Z,3.40
2023-03-29T02:24:39.352Z,3.57
2023-03-29T02:27:06.578Z,3.50
2023-03-29T02:29:33.863Z,3.50
2023-03-29T02:32:11.668Z,3.43
2023-03-29T02:34:51.245Z,3.87
2023-03-29T02:37:20.442Z,3.20
2023-03-29T02:39:50.149Z,3.17
2023-03-29T02:42:20.684Z,2.90
2023-03-29T02:44:52.262Z,2.87
2023-03-29T02:47:28.909Z,2.90
2023-03-29T02:49:56.022Z,3.10
2023-03-29T02:52:28.586Z,2.20
2023-03-29T02:54:56.489Z,2.27
2023-03-29T02:57:26.981Z,2.37
2023-03-29T02:59:57.242Z,2.60
2023-03-29T03:02:28.113Z,2.10
2023-03-29T03:04:55.283Z,2.50
2023-03-29T03:07:22.191Z,2.20
2023-03-29T03:09:49.302Z,2.57
2023-03-29T03:12:16.294Z,2.00
2023-03-29T03:14:43.518Z,2.10
2023-03-29T03:17:10.529Z,2.43
2023-03-29T03:19:37.701Z,2.67
2023-03-29T03:22:06.301Z,2.50
2023-03-29T03:24:33.126Z,2.03
2023-03-29T03:27:00.000Z,2.30
2023-03-29T03:29:28.583Z,2.57
2023-03-29T03:31:55.910Z,2.20
2023-03-29T03:34:23.292Z,2.80
2023-03-29T03:36:50.821Z,2.40
2023-03-29T03:39:17.828Z,2.40
2023-03-29T03:41:44.819Z,2.47
2023-03-29T03:44:12.269Z,3.30
2023-03-29T03:46:39.528Z,2.27
2023-03-29T03:49:06.535Z,1.90
2023-03-29T03:51:33.497Z,1.90
2023-03-29T03:54:00.658Z,2.03
2023-03-29T03:56:30.141Z,2.10
2023-03-29T03:58:57.638Z,2.10
2023-03-29T04:01:24.706Z,2.20
2023-03-29T04:03:51.606Z,2.17
2023-03-29T04:06:18.891Z,2.20
2023-03-29T04:08:46.024Z,2.30
2023-03-29T04:11:13.043Z,2.30
2023-03-29T04:13:40.179Z,2.50
2023-03-29T04:16:07.800Z,2.60
2023-03-29T04:18:34.803Z,2.60
2023-03-29T04:21:02.362Z,2.27
2023-03-29T04:23:29.519Z,2.27
2023-03-29T04:25:56.988Z,2.63
2023-03-29T04:28:24.023Z,2.40
2023-03-29T04:30:51.054Z,2.60
2023-03-29T04:33:18.142Z,2.10
2023-03-29T04:35:45.121Z,2.20
2023-03-29T04:38:12.134Z,2.60
2023-03-29T04:40:39.059Z,2.77
2023-03-29T04:43:06.542Z,2.73
2023-03-29T04:45:33.584Z,2.20
2023-03-29T04:48:00.535Z,3.77
2023-03-29T04:50:27.823Z,3.93
2023-03-29T04:52:54.858Z,3.47
2023-03-29T04:55:21.785Z,3.17
2023-03-29T04:57:49.051Z,3.20
2023-03-29T05:00:17.353Z,2.60
2023-03-29T05:02:48.102Z,2.63
2023-03-29T05:05:15.532Z,3.20
2023-03-29T05:07:42.435Z,2.80
2023-03-29T05:10:10.030Z,2.27
2023-03-29T05:12:37.574Z,2.50
2023-03-29T05:15:05.550Z,2.60
2023-03-29T05:17:32.705Z,2.60
2023-03-29T05:19:59.661Z,3.00
2023-03-29T05:22:26.961Z,3.13
2023-03-29T05:24:54.264Z,3.17
2023-03-29T05:27:24.197Z,2.90
2023-03-29T05:29:51.180Z,2.60
2023-03-29T05:32:18.011Z,2.43
2023-03-29T05:34:45.424Z,2.57
2023-03-29T05:37:13.597Z,2.47
2023-03-29T05:39:40.384Z,2.70
2023-03-29T05:42:07.219Z,2.83
2023-03-29T05:44:34.482Z,2.90
2023-03-29T05:47:01.656Z,3.13
2023-03-29T05:49:28.464Z,2.77
2023-03-29T05:51:57.666Z,2.67
2023-03-29T05:54:25.426Z,2.80
2023-03-29T05:56:52.570Z,2.67
2023-03-29T05:59:28.902Z,3.70
2023-03-29T06:02:18.021Z,4.07
2023-03-29T06:04:45.029Z,3.90
2023-03-29T06:07:12.822Z,4.13
2023-03-29T06:09:40.070Z,3.67
2023-03-29T06:12:07.787Z,4.10
2023-03-29T06:14:34.780Z,4.03
2023-03-29T06:17:02.113Z,3.60
2023-03-29T06:19:29.516Z,3.10
2023-03-29T06:21:56.530Z,3.50
2023-03-29T06:24:29.587Z,3.40
2023-03-29T06:26:56.712Z,4.00
2023-03-29T06:29:23.681Z,3.50
2023-03-29T06:31:51.007Z,3.27
2023-03-29T06:34:17.977Z,3.73
2023-03-29T06:36:46.122Z,3.83
2023-03-29T06:39:13.331Z,3.40
2023-03-29T06:41:40.220Z,3.57
2023-03-29T06:44:07.106Z,3.50
2023-03-29T06:46:34.429Z,3.40
2023-03-29T06:49:01.762Z,3.23
2023-03-29T06:51:29.382Z,3.27
2023-03-29T06:53:56.272Z,3.10
2023-03-29T06:56:24.075Z,3.17
2023-03-29T06:58:51.745Z,3.00
2023-03-29T07:01:18.795Z,3.73
2023-03-29T07:03:46.791Z,3.33
2023-03-29T07:06:15.230Z,3.50
2023-03-29T07:08:45.277Z,3.67
2023-03-29T07:11:14.472Z,3.37
2023-03-29T07:13:42.823Z,3.23
2023-03-29T07:16:14.234Z,3.87
2023-03-29T07:18:43.133Z,3.27
2023-03-29T07:21:12.655Z,2.83
2023-03-29T07:23:40.913Z,2.63
2023-03-29T07:26:08.402Z,4.07
2023-03-29T07:28:37.715Z,3.40
2023-03-29T07:31:11.188Z,3.77
2023-03-29T07:33:39.468Z,3.73
2023-03-29T07:36:07.141Z,3.23
2023-03-29T07:38:34.399Z,2.90
2023-03-29T07:41:06.981Z,2.73
2023-03-29T07:43:34.866Z,2.67
2023-03-29T07:46:04.200Z,3.37
2023-03-29T07:48:32.100Z,2.90
2023-03-29T07:50:59.125Z,3.30
2023-03-29T07:53:29.925Z,2.80
2023-03-29T07:55:57.387Z,3.67
2023-03-29T07:58:24.534Z,2.60
2023-03-29T08:00:51.464Z,3.37
2023-03-29T08:03:18.402Z,2.97
2023-03-29T08:05:45.485Z,3.03
2023-03-29T08:08:14.421Z,3.10
2023-03-29T08:10:44.968Z,3.27
2023-03-29T08:13:12.272Z,3.03
2023-03-29T08:15:40.305Z,2.87
2023-03-29T08:18:08.394Z,2.60
2023-03-29T08:20:35.641Z,2.50
2023-03-29T08:23:02.727Z,2.80
2023-03-29T08:25:30.608Z,3.00
2023-03-29T08:27:57.675Z,3.00
2023-03-29T08:30:24.589Z,2.60
2023-03-29T08:32:54.459Z,2.93
2023-03-29T08:35:22.722Z,2.70
2023-03-29T08:37:49.931Z,2.70
2023-03-29T08:40:21.274Z,2.90
2023-03-29T08:43:14.886Z,2.43
2023-03-29T08:46:07.950Z,2.67
2023-03-29T08:49:03.272Z,2.60
2023-03-29T08:51:38.406Z,2.43
2023-03-29T08:54:06.834Z,2.70
2023-03-29T08:56:37.672Z,2.77
2023-03-29T08:59:12.801Z,2.60
2023-03-29T09:01:40.166Z,2.30
2023-03-29T09:04:13.322Z,2.57
2023-03-29T09:06:41.082Z,2.30
2023-03-29T09:09:18.139Z,2.50
2023-03-29T09:12:22.790Z,2.83
2023-03-29T09:14:59.131Z,2.63
2023-03-29T09:17:44.307Z,2.63
2023-03-29T09:20:52.742Z,2.30
2023-03-29T09:23:38.781Z,2.30
2023-03-29T09:26:16.680Z,2.17
2023-03-29T09:28:59.964Z,2.03
2023-03-29T09:31:35.397Z,2.57
2023-03-29T09:34:11.021Z,2.33
2023-03-29T09:36:54.157Z,2.27
2023-03-29T09:39:22.975Z,2.40
2023-03-29T09:41:57.131Z,2.30
2023-03-29T09:44:31.610Z,2.73
2023-03-29T09:47:09.522Z,2.83
2023-03-29T09:49:40.548Z,2.63
2023-03-29T09:52:14.194Z,2.90
2023-03-29T09:54:41.582Z,2.40
2023-03-29T09:57:17.611Z,2.20
2023-03-29T09:59:47.018Z,2.73
2023-03-29T10:02:15.198Z,2.30
2023-03-29T10:04:43.202Z,2.20
2023-03-29T10:07:18.560Z,2.33
2023-03-29T10:09:46.863Z,2.23
2023-03-29T10:12:14.345Z,2.17
2023-03-29T10:14:45.544Z,2.07
2023-03-29T10:17:26.877Z,2.67
2023-03-29T10:19:58.599Z,2.57
2023-03-29T10:22:35.512Z,2.30
2023-03-29T10:25:02.664Z,2.23
2023-03-29T10:27:32.324Z,2.50
2023-03-29T10:30:01.375Z,2.17
2023-03-29T10:32:35.041Z,2.43
2023-03-29T10:35:08.518Z,2.40
2023-03-29T10:37:35.597Z,2.63
2023-03-29T10:40:02.668Z,2.73
2023-03-29T10:42:29.659Z,2.70
2023-03-29T10:45:00.456Z,2.37
2023-03-29T10:47:34.541Z,2.50
2023-03-29T10:50:02.071Z,2.77
2023-03-29T10:52:30.342Z,2.60
2023-03-29T10:54:59.460Z,2.40
2023-03-29T10:57:53.479Z,2.50
2023-03-29T11:00:27.300Z,2.57
2023-03-29T11:03:17.653Z,2.50
2023-03-29T11:05:53.019Z,2.77
2023-03-29T11:08:47.331Z,2.50
2023-03-29T11:11:44.492Z,2.63
2023-03-29T11:14:28.152Z,2.20
2023-03-29T11:17:16.759Z,2.70
2023-03-29T11:20:16.764Z,2.30
2023-03-29T11:22:53.497Z,2.10
2023-03-29T11:25:29.078Z,2.40
2023-03-29T11:28:17.452Z,2.13
2023-03-29T11:31:11.906Z,2.17
2023-03-29T11:33:58.075Z,2.17
2023-03-29T11:36:41.920Z,2.07
2023-03-29T11:39:14.911Z,2.47
2023-03-29T11:41:46.733Z,1.97
2023-03-29T11:44:31.987Z,2.10
2023-03-29T11:47:05.650Z,2.80
2023-03-29T11:49:49.467Z,2.40
2023-03-29T11:52:22.846Z,2.60
2023-03-29T11:54:56.594Z,1.90
2023-03-29T11:57:31.305Z,2.90
2023-03-29T12:00:07.441Z,2.30
2023-03-29T12:02:42.684Z,2.60
2023-03-29T12:05:23.313Z,2.10
2023-03-29T12:07:56.365Z,2.30
2023-03-29T12:10:31.568Z,2.67
2023-03-29T12:13:09.777Z,2.37
2023-03-29T12:15:44.337Z,2.20
2023-03-29T12:18:27.152Z,2.60
2023-03-29T12:21:00.157Z,2.50
2023-03-29T12:23:31.794Z,2.50
2023-03-29T12:26:04.622Z,1.70
2023-03-29T12:28:54.801Z,2.33
2023-03-29T12:31:33.183Z,2.60
2023-03-29T12:34:13.612Z,2.60
2023-03-29T12:36:48.842Z,2.73
2023-03-29T12:39:18.994Z,2.67
2023-03-29T12:41:49.266Z,2.20
2023-03-29T12:44:20.769Z,2.57
2023-03-29T12:46:52.750Z,2.50
2023-03-29T12:49:38.810Z,2.10
2023-03-29T12:52:23.985Z,2.10
2023-03-29T12:54:57.278Z,2.63
2023-03-29T12:58:04.914Z,2.53
2023-03-29T13:00:32.736Z,2.20
2023-03-29T13:03:03.933Z,2.60
2023-03-29T13:05:35.291Z,2.50
2023-03-29T13:08:22.377Z,2.53
2023-03-29T13:10:55.012Z,2.87
2023-03-29T13:13:28.277Z,2.30
2023-03-29T13:16:17.300Z,2.77
2023-03-29T13:19:15.508Z,2.47
2023-03-29T13:21:51.769Z,1.97
2023-03-29T13:24:32.272Z,2.70
2023-03-29T13:27:13.121Z,3.00
2023-03-29T13:30:06.654Z,2.07
2023-03-29T13:32:41.251Z,2.53
2023-03-29T13:35:35.609Z,2.53
2023-03-29T13:38:18.340Z,2.60
2023-03-29T13:40:45.042Z,1.90
2023-03-29T13:43:18.915Z,2.13
2023-03-29T13:45:52.292Z,2.03
2023-03-29T13:48:35.886Z,2.53
2023-03-29T13:51:19.883Z,2.83
2023-03-29T13:54:02.535Z,2.20
2023-03-29T13:56:37.455Z,2.27
2023-03-29T13:59:15.953Z,2.43
2023-03-29T14:01:45.962Z,2.37
2023-03-29T14:04:19.527Z,2.47
2023-03-29T14:06:52.947Z,2.50
2023-03-29T14:09:23.506Z,2.37
2023-03-29T14:11:51.816Z,2.10
2023-03-29T14:14:24.138Z,2.40
2023-03-29T14:16:51.366Z,2.63
2023-03-29T14:19:32.037Z,2.50
2023-03-29T14:22:03.181Z,2.20
2023-03-29T14:24:41.216Z,2.70
2023-03-29T14:27:12.195Z,2.40
2023-03-29T14:29:39.034Z,2.30
2023-03-29T14:32:11.626Z,2.27
2023-03-29T14:34:39.582Z,2.40
2023-03-29T14:37:09.262Z,2.07
2023-03-29T14:39:36.787Z,1.80
2023-03-29T14:42:03.812Z,1.90
2023-03-29T14:44:33.351Z,2.00
2023-03-29T14:47:03.132Z,1.93
2023-03-29T14:49:30.372Z,1.83
2023-03-29T14:51:57.431Z,1.87
2023-03-29T14:54:27.619Z,2.20
2023-03-29T14:56:54.853Z,2.03
2023-03-29T14:59:42.444Z,1.93
2023-03-29T15:02:27.278Z,1.90
2023-03-29T15:04:56.632Z,2.50
2023-03-29T15:07:25.730Z,2.20
2023-03-29T15:09:53.537Z,2.30
2023-03-29T15:12:20.645Z,2.13
2023-03-29T15:14:51.449Z,2.03
2023-03-29T15:17:24.027Z,2.33
2023-03-29T15:20:07.467Z,2.03
2023-03-29T15:22:34.659Z,2.53
2023-03-29T15:25:02.107Z,2.53
2023-03-29T15:27:41.860Z,2.13
2023-03-29T15:30:15.068Z,2.10
2023-03-29T15:32:42.110Z,2.30
2023-03-29T15:35:23.498Z,2.00
2023-03-29T15:37:52.632Z,2.47
2023-03-29T15:40:25.424Z,2.63
2023-03-29T15:42:54.520Z,1.80
2023-03-29T15:45:22.402Z,2.77
2023-03-29T15:47:49.332Z,2.17
2023-03-29T15:50:16.236Z,2.70
2023-03-29T15:52:43.077Z,2.43
2023-03-29T15:55:10.651Z,2.60
2023-03-29T15:57:39.856Z,2.90
2023-03-29T16:00:13.347Z,2.43
2023-03-29T16:02:41.202Z,2.57
2023-03-29T16:05:10.788Z,2.60
2023-03-29T16:07:37.744Z,2.40
2023-03-29T16:10:04.854Z,2.53
2023-03-29T16:12:31.648Z,2.23
2023-03-29T16:14:58.533Z,2.53
2023-03-29T16:17:25.265Z,2.57
2023-03-29T16:19:52.061Z,2.20
2023-03-29T16:22:18.755Z,2.30
2023-03-29T16:24:45.787Z,2.77
2023-03-29T16:27:12.581Z,2.30
2023-03-29T16:29:39.392Z,2.90
2023-03-29T16:32:07.266Z,2.10
2023-03-29T16:34:36.166Z,2.50
2023-03-29T16:37:03.046Z,2.20
2023-03-29T16:39:29.777Z,2.33
2023-03-29T16:41:56.723Z,2.30
2023-03-29T16:44:24.848Z,2.67
2023-03-29T16:46:54.439Z,2.53
2023-03-29T16:49:21.745Z,2.53
2023-03-29T16:51:48.818Z,2.10
2023-03-29T16:54:17.535Z,2.10
2023-03-29T16:56:47.355Z,2.20
2023-03-29T16:59:15.553Z,2.50
2023-03-29T17:01:43.107Z,2.33
2023-03-29T17:04:10.283Z,2.27
2023-03-29T17:06:37.266Z,2.40
2023-03-29T17:09:05.239Z,1.90
2023-03-29T17:11:32.172Z,1.97
2023-03-29T17:13:59.223Z,2.00
2023-03-29T17:16:26.286Z,2.10
2023-03-29T17:18:53.149Z,2.23
2023-03-29T17:21:20.507Z,1.80
2023-03-29T17:23:47.192Z,2.30
2023-03-29T17:26:14.365Z,2.10
2023-03-29T17:28:41.510Z,2.03
2023-03-29T17:31:08.359Z,2.50
2023-03-29T17:33:36.231Z,2.30
2023-03-29T17:36:05.131Z,2.10
2023-03-29T17:38:34.350Z,2.43
2023-03-29T17:41:01.701Z,3.23
2023-03-29T17:43:28.897Z,2.03
2023-03-29T17:45:55.773Z,1.90
2023-03-29T17:48:24.043Z,2.10
2023-03-29T17:50:50.845Z,1.90
2023-03-29T17:53:17.635Z,1.80
2023-03-29T17:55:44.590Z,1.90
2023-03-29T17:58:11.382Z,1.83
2023-03-29T18:00:38.148Z,2.03
2023-03-29T18:03:05.880Z,2.10
2023-03-29T18:05:33.799Z,4.10
2023-03-29T18:08:00.573Z,2.60
2023-03-29T18:10:27.469Z,2.90
2023-03-29T18:12:54.792Z,3.23
2023-03-29T18:15:21.583Z,2.50
2023-03-29T18:17:48.349Z,2.20
2023-03-29T18:20:16.360Z,2.23
2023-03-29T18:22:44.698Z,2.37
2023-03-29T18:25:11.505Z,1.90
2023-03-29T18:27:39.487Z,2.30
2023-03-29T18:30:09.048Z,2.10
2023-03-29T18:32:39.094Z,2.03
2023-03-29T18:35:06.509Z,2.17
2023-03-29T18:37:33.242Z,2.70
2023-03-29T18:40:01.098Z,2.53
2023-03-29T18:42:27.863Z,2.33
2023-03-29T18:44:54.594Z,2.30
2023-03-29T18:47:21.441Z,2.57
2023-03-29T18:49:48.235Z,2.60
2023-03-29T18:52:15.002Z,2.33
2023-03-29T18:54:42.006Z,2.53
2023-03-29T18:57:09.085Z,2.30
2023-03-29T18:59:38.787Z,2.60
2023-03-29T19:02:05.593Z,2.30
2023-03-29T19:04:32.385Z,2.23
2023-03-29T19:07:01.479Z,2.50
2023-03-29T19:09:28.519Z,2.70
2023-03-29T19:11:55.604Z,2.67
2023-03-29T19:14:26.317Z,2.27
2023-03-29T19:16:54.048Z,2.10
2023-03-29T19:19:22.204Z,2.20
2023-03-29T19:21:51.154Z,3.00
2023-03-29T19:24:18.705Z,3.27
2023-03-29T19:26:48.059Z,2.77
2023-03-29T19:29:15.228Z,2.60
2023-03-29T19:31:42.025Z,3.27
2023-03-29T19:34:11.103Z,3.00
2023-03-29T19:36:38.806Z,2.90
2023-03-29T19:39:06.339Z,2.90
2023-03-29T19:41:33.365Z,3.00
2023-03-29T19:44:00.166Z,3.17
2023-03-29T19:46:28.452Z,3.73
2023-03-29T19:48:56.334Z,3.63
2023-03-29T19:51:23.925Z,3.27
2023-03-29T19:53:50.719Z,3.30
2023-03-29T19:56:17.980Z,3.27
2023-03-29T19:58:44.794Z,3.47
2023-03-29T20:01:11.587Z,3.40
2023-03-29T20:03:39.494Z,3.37
2023-03-29T20:06:10.434Z,3.90
2023-03-29T20:08:39.045Z,3.40
2023-03-29T20:11:10.633Z,4.30
2023-03-29T20:13:39.331Z,4.33
2023-03-29T20:16:08.493Z,3.40
2023-03-29T20:18:35.307Z,3.70
2023-03-29T20:21:02.364Z,3.60
2023-03-29T20:23:30.121Z,3.80
2023-03-29T20:25:57.262Z,3.07
2023-03-29T20:28:24.743Z,3.60
2023-03-29T20:30:52.529Z,3.00
2023-03-29T20:33:20.864Z,3.50
2023-03-29T20:35:49.461Z,3.10
2023-03-29T20:38:16.341Z,3.20
2023-03-29T20:40:43.090Z,3.27
2023-03-29T20:43:13.715Z,3.57
2023-03-29T20:45:52.547Z,3.30
2023-03-29T20:48:22.410Z,3.20
2023-03-29T20:50:49.794Z,3.07
2023-03-29T20:53:16.589Z,3.23
2023-03-29T20:55:43.315Z,3.20
2023-03-29T20:58:10.188Z,3.20
2023-03-29T21:00:37.824Z,3.47
2023-03-29T21:03:04.839Z,3.60
2023-03-29T21:05:33.335Z,3.43
2023-03-29T21:08:00.167Z,3.20
2023-03-29T21:10:28.310Z,3.33
2023-03-29T21:13:00.440Z,3.57
2023-03-29T21:15:30.824Z,3.60
2023-03-29T21:17:58.282Z,3.73
2023-03-29T21:20:25.750Z,3.40
2023-03-29T21:22:52.598Z,3.53
2023-03-29T21:25:19.664Z,3.83
2023-03-29T21:27:46.471Z,3.77
2023-03-29T21:30:13.471Z,4.07
2023-03-29T21:32:40.659Z,3.60
2023-03-29T21:35:08.195Z,3.90
2023-03-29T21:37:34.932Z,3.60
2023-03-29T21:40:05.841Z,3.70
2023-03-29T21:42:35.985Z,4.20
2023-03-29T21:45:03.246Z,3.60
2023-03-29T21:47:30.032Z,3.87
2023-03-29T21:49:56.794Z,3.80
2023-03-29T21:52:23.561Z,3.57
2023-03-29T21:54:50.497Z,3.80
2023-03-29T21:57:17.348Z,4.00
2023-03-29T21:59:44.262Z,4.23
2023-03-29T22:02:11.423Z,3.10
2023-03-29T22:04:38.180Z,4.00
2023-03-29T22:07:06.114Z,3.80
2023-03-29T22:09:35.449Z,4.03
2023-03-29T22:12:02.995Z,3.87
2023-03-29T22:14:31.832Z,3.63
2023-03-29T22:16:58.629Z,3.63
2023-03-29T22:19:25.448Z,3.37
2023-03-29T22:21:52.275Z,3.30
2023-03-29T22:24:19.070Z,3.50
2023-03-29T22:26:46.133Z,3.13
2023-03-29T22:29:12.889Z,3.93
2023-03-29T22:31:39.735Z,3.80
2023-03-29T22:34:06.942Z,3.57
2023-03-29T22:36:33.911Z,3.40
2023-03-29T22:39:00.921Z,3.43
2023-03-29T22:41:28.400Z,3.53
2023-03-29T22:43:57.367Z,2.87
2023-03-29T22:46:24.770Z,3.50
2023-03-29T22:48:51.596Z,3.30
2023-03-29T22:51:19.001Z,3.30
2023-03-29T22:53:47.289Z,3.70
2023-03-29T22:56:16.013Z,3.10
2023-03-29T22:58:43.442Z,2.83
2023-03-29T23:01:10.338Z,3.23
2023-03-29T23:03:37.047Z,2.77
2023-03-29T23:06:03.994Z,2.97
2023-03-29T23:08:32.232Z,2.87
2023-03-29T23:10:59.781Z,3.53
2023-03-29T23:13:29.448Z,3.87
2023-03-29T23:15:59.349Z,3.40
2023-03-29T23:18:28.066Z,3.80
2023-03-29T23:20:56.696Z,3.60
2023-03-29T23:23:24.968Z,3.27
2023-03-29T23:25:53.129Z,3.07
2023-03-29T23:28:23.742Z,3.23
2023-03-29T23:31:00.612Z,3.10
2023-03-29T23:33:29.114Z,3.50
2023-03-29T23:35:55.889Z,3.40
2023-03-29T23:38:23.308Z,3.07
2023-03-29T23:40:59.283Z,3.00
2023-03-29T23:43:31.963Z,3.77
2023-03-29T23:46:01.243Z,3.30
2023-03-29T23:48:28.488Z,3.50
2023-03-29T23:50:58.547Z,3.33
2023-03-29T23:53:28.859Z,3.20
2023-03-29T23:56:01.570Z,3.13
2023-03-29T23:58:29.768Z,3.70
